Date,TemperatureHighF,TemperatureAvgF,TemperatureLowF,DewpointHighF,DewpointAvgF,DewpointLowF,HumidityHigh,HumidityAvg,HumidityLow,PressureMaxIn,PressureMinIn,WindSpeedMaxMPH,WindSpeedAvgMPH,GustSpeedMaxMPH,PrecipitationSumIn
2013-1-1,39.0,33.6,28.0,26.1,22.2,15.7,74,63,52,29.99,29.92,17,4,17,0.00
2013-1-2,31.3,25.0,11.3,15.9,12.0,3.8,80,58,47,30.27,29.99,16,4,16,0.00
2013-1-3,32.2,19.0,5.4,15.9,5.2,-4.4,69,55,40,30.31,30.16,9,3,9,0.00
2013-1-4,38.7,29.2,19.8,24.0,19.7,15.1,86,68,52,30.17,30.02,13,4,13,0.00
2013-1-5,41.9,31.7,25.2,24.9,20.5,17.4,80,64,47,30.40,30.07,12,3,15,0.00
2013-1-6,44.6,33.2,25.2,29.9,25.6,19.1,87,74,53,30.35,30.08,8,2,8,0.00
2013-1-7,41.4,31.5,23.7,28.0,22.3,15.5,93,70,45,30.52,30.13,10,2,10,0.00
2013-1-8,48.4,36.0,25.9,30.0,26.3,17.5,87,69,45,30.52,30.42,12,3,13,0.00
2013-1-9,32.2,29.6,26.6,27.5,26.5,25.4,98,88,82,30.50,30.48,4,1,4,0.00
2013-1-10,45.5,38.4,31.8,25.2,23.7,21.9,72,56,41,30.67,30.50,16,4,16,0.00
2013-1-11,36.9,33.6,25.7,32.1,27.4,22.1,89,78,66,30.65,30.44,5,1,5,0.01
2013-1-12,35.6,35.6,35.6,32.1,32.1,32.1,87,87,87,30.44,30.44,0,0,0,0.00
2013-1-13,35.6,35.6,35.6,32.1,32.1,32.1,87,87,87,30.44,30.44,0,0,0,0.00
2013-1-14,35.6,35.6,35.6,32.1,32.1,32.1,87,87,87,30.44,30.44,0,0,0,0.00
2013-1-15,35.6,35.6,35.6,32.1,32.1,32.1,87,87,87,30.44,30.44,0,0,0,0.00
2013-1-16,35.6,35.6,35.6,32.1,32.1,32.1,87,87,87,30.44,30.44,0,0,0,0.00
2013-1-17,35.6,35.6,35.6,32.1,32.1,32.1,87,87,87,30.44,30.44,0,0,0,0.00
2013-1-18,35.6,35.6,35.6,32.1,32.1,32.1,87,87,87,30.44,30.44,0,0,0,0.00
2013-1-19,43.3,38.1,35.6,33.5,30.9,26.0,87,76,53,30.44,30.01,9,2,10,0.00
2013-1-20,51.8,40.1,26.4,31.5,24.7,9.7,75,55,31,30.10,29.75,8,4,19,0.00
2013-1-21,28.6,23.6,17.6,22.5,14.9,8.4,98,71,44,30.21,29.90,6,1,12,0.00
2013-1-22,23.2,17.7,9.9,19.6,4.3,-4.6,99,58,35,30.24,29.89,8,3,13,0.00
2013-1-23,17.7,10.4,4.5,-0.9,-4.1,-7.1,68,52,39,30.30,30.22,7,2,14,0.00
2013-1-24,20.5,10.9,1.4,1.1,-4.6,-7.7,74,51,32,30.42,30.23,14,4,19,0.01
2013-1-25,23.4,15.5,5.9,14.3,1.6,-5.2,91,57,32,30.48,30.17,6,2,12,0.00
2013-1-26,25.8,15.7,7.0,12.0,7.3,1.8,96,72,39,30.28,30.14,9,2,17,0.00
2013-1-27,26.4,21.2,18.1,3.9,0.6,-1.5,50,40,30,30.60,30.58,6,1,6,0.00
2013-1-28,31.8,25.8,17.4,31.6,18.9,0.7,99,77,44,30.59,30.11,7,2,9,0.00
2013-1-29,37.9,32.2,27.5,34.0,31.1,27.3,99,95,84,30.29,30.11,5,1,5,0.19
2013-1-30,51.8,40.7,32.5,51.4,40.5,32.3,99,99,99,30.25,29.77,16,4,16,0.07
2013-1-31,57.4,41.7,28.8,57.1,28.3,-3.5,99,61,37,29.80,29.16,22,8,22,0.18
2013-2-1,31.6,27.0,22.8,16.3,10.5,4.4,61,50,36,30.15,29.80,15,6,15,0.00
2013-2-2,31.1,27.9,24.8,9.1,7.4,5.7,48,42,35,30.26,30.18,14,7,14,0.00
2013-2-3,31.3,25.4,18.5,18.5,14.4,12.2,79,63,50,30.00,29.88,8,2,8,0.00
2013-2-4,31.3,24.0,18.0,16.7,10.4,4.1,86,58,36,30.08,29.89,12,3,12,0.00
2013-2-5,28.8,24.7,22.6,23.8,17.3,8.0,96,74,53,30.12,30.04,7,1,7,0.00
2013-2-6,40.5,29.8,21.9,26.5,19.2,0.4,99,68,36,30.46,30.04,11,3,11,0.03
2013-2-7,33.8,24.5,20.8,13.8,6.6,1.2,66,46,35,30.62,30.46,8,3,8,0.00
2013-2-8,30.4,26.7,19.9,30.2,23.1,10.7,99,87,52,30.53,29.72,24,7,24,0.00
2013-2-9,30.7,22.0,14.5,22.6,14.8,2.1,99,76,43,30.40,29.78,21,2,21,0.01
2013-2-10,45.1,22.2,6.1,15.7,5.5,-1.6,76,53,20,30.57,30.40,7,1,7,0.11
2013-2-11,44.8,35.8,23.7,44.5,33.9,15.3,99,93,70,30.46,29.77,7,2,11,0.31
2013-2-12,46.2,38.8,34.3,38.5,30.3,25.9,99,74,49,30.05,29.80,9,3,12,0.00
2013-2-13,44.5,35.8,32.7,28.1,24.9,23.0,83,65,43,30.03,29.83,6,2,10,0.01
2013-2-14,49.1,36.6,28.6,30.3,25.8,22.1,99,68,40,30.11,29.84,7,2,7,0.03
2013-2-15,49.5,38.7,29.7,35.4,33.0,29.1,99,82,57,30.12,30.04,12,4,12,0.00
2013-2-16,40.5,33.3,27.0,34.3,25.1,17.4,99,74,42,30.09,29.84,12,4,12,0.06
2013-2-17,28.0,22.8,14.7,24.3,6.3,0.9,90,50,35,29.97,29.68,32,9,32,0.05
2013-2-18,34.0,22.6,12.7,10.5,4.8,0.9,61,47,30,30.31,29.97,16,6,16,0.00
2013-2-19,45.0,35.4,24.8,40.0,27.5,8.0,99,75,44,30.31,29.74,16,4,16,0.22
2013-2-20,36.3,32.6,28.8,35.5,22.1,11.4,97,68,43,29.89,29.74,12,5,12,0.00
2013-2-21,33.8,24.5,20.5,16.3,12.6,10.2,71,61,48,30.39,30.03,17,8,17,0.00
2013-2-22,40.6,29.2,17.2,27.0,20.2,12.9,88,70,49,30.52,30.38,13,3,13,0.00
2013-2-23,37.4,33.9,31.8,36.6,31.9,26.8,99,93,80,30.42,29.97,10,2,10,0.22
2013-2-24,40.8,34.9,31.8,38.2,33.3,27.4,99,94,79,30.04,29.84,14,5,14,0.04
2013-2-25,45.0,35.2,26.1,29.4,27.1,23.7,92,73,51,30.36,30.03,9,3,9,0.00
2013-2-26,43.2,35.1,29.5,31.9,28.5,25.9,97,78,56,30.44,30.18,9,2,9,0.07
2013-2-27,41.4,37.6,32.5,41.1,37.3,31.9,99,99,97,30.18,29.68,15,5,15,1.61
2013-3-2,36.1,33.0,29.8,26.7,25.6,24.4,85,74,67,29.83,29.79,12,4,12,1.61
2013-3-3,34.9,29.7,26.2,25.4,22.1,18.9,82,73,59,29.83,29.75,12,5,12,0.00
2013-3-4,39.0,31.5,25.9,24.6,21.6,19.1,78,67,53,29.96,29.81,18,7,18,0.00
2013-3-5,49.1,37.2,27.7,29.9,25.5,21.0,78,64,47,30.16,29.96,14,4,14,0.00
2013-3-6,42.3,36.8,34.2,38.1,31.4,27.7,92,81,66,30.15,30.06,25,7,25,0.00
2013-3-7,35.8,32.8,31.1,33.0,30.6,28.3,99,92,77,30.17,30.07,21,8,21,0.05
2013-3-8,39.0,34.3,30.7,34.7,30.6,23.0,99,87,62,30.29,30.08,14,2,14,0.27
2013-3-9,57.9,40.7,30.2,27.8,22.9,16.7,84,53,22,30.46,30.28,10,4,10,0.31
2013-3-10,50.2,36.9,24.3,34.8,29.9,23.2,98,77,50,30.52,30.43,10,3,10,0.00
2013-3-11,51.6,42.4,35.1,44.4,38.8,32.7,99,88,70,30.45,30.24,13,5,13,0.00
2013-3-12,52.7,49.1,39.4,52.4,48.1,37.6,99,97,91,30.25,29.82,17,7,17,1.61
2013-3-13,52.0,40.6,29.5,37.6,29.8,25.2,96,69,40,29.98,29.88,12,4,12,0.02
2013-3-14,46.9,32.2,27.5,26.1,16.4,12.7,59,52,41,30.01,29.89,17,6,17,0.02
2013-3-15,44.2,32.7,23.5,30.0,19.2,11.4,81,58,35,30.05,29.82,15,5,15,0.00
2013-3-16,38.3,32.3,27.5,30.0,22.2,13.3,93,68,40,30.01,29.86,8,3,8,0.00
2013-3-17,37.8,30.0,23.4,28.2,12.4,6.0,88,50,28,30.43,30.01,19,4,19,0.00
2013-3-18,37.8,28.1,18.5,28.0,10.9,1.4,99,52,29,30.56,30.24,12,3,12,0.14
2013-3-19,36.9,31.9,28.2,35.2,31.5,28.0,99,98,93,30.24,29.77,12,4,12,0.61
2013-3-20,45.1,33.5,25.3,30.8,20.2,16.5,96,60,36,29.95,29.87,13,4,13,0.09
2013-3-21,38.7,31.7,27.9,25.1,19.6,11.1,84,62,41,29.95,29.74,10,3,10,0.00
2013-3-22,41.5,31.7,21.9,23.7,18.1,11.5,73,58,45,29.94,29.80,13,4,13,0.00
2013-3-23,46.4,36.3,28.6,26.5,21.1,17.7,76,56,35,30.00,29.85,19,6,19,0.00
2013-3-24,48.0,36.8,24.8,26.0,22.5,18.7,81,57,40,30.03,29.84,12,3,12,0.00
2013-3-25,46.4,38.1,31.3,30.1,26.5,23.5,75,63,48,29.88,29.58,17,5,17,0.00
2013-3-26,51.6,40.1,32.2,30.4,25.5,18.7,78,58,33,29.95,29.68,12,3,12,0.00
2013-3-27,55.9,40.0,28.4,27.9,23.5,19.3,70,54,29,30.04,29.93,16,4,16,0.00
2013-3-28,54.9,42.5,35.1,35.6,31.3,27.2,83,65,43,30.19,30.03,12,3,12,0.00
2013-3-29,56.7,45.5,32.7,33.8,30.4,27.6,84,57,38,30.22,30.13,13,4,13,0.00
2013-3-30,61.3,45.5,31.6,32.5,26.1,19.9,86,51,24,30.25,30.16,10,3,10,0.00
2013-3-31,55.6,43.6,28.6,42.3,29.6,-45.5,99,60,37,30.26,29.79,21,4,21,0.20
2013-4-1,63.3,45.6,32.7,47.3,37.9,15.5,99,77,46,29.98,29.69,17,4,17,0.06
2013-4-2,45.5,34.1,26.2,20.1,15.4,9.9,72,48,26,30.14,29.98,13,4,13,0.00
2013-4-3,48.4,35.9,26.1,18.6,14.9,10.5,61,43,27,30.37,30.14,17,5,17,0.00
2013-4-4,54.0,38.8,25.2,32.2,21.5,12.7,80,52,29,30.48,30.20,16,5,16,0.00
2013-4-5,63.7,46.1,37.2,32.2,26.5,6.8,80,50,20,30.20,29.81,18,6,18,0.00
2013-4-6,57.0,41.7,30.7,23.6,13.4,5.6,63,34,15,30.40,30.07,17,5,17,0.00
2013-4-7,54.1,47.6,36.7,42.8,28.8,10.6,91,53,23,30.42,30.14,21,6,21,0.03
2013-4-8,75.6,55.0,39.4,44.1,41.0,36.3,99,65,27,30.20,30.10,12,2,12,0.00
2013-4-9,79.0,62.0,47.8,54.2,46.3,39.1,98,61,32,30.17,30.02,10,3,12,0.00
2013-4-10,67.5,58.5,51.3,54.3,46.9,38.8,88,66,55,30.11,29.99,11,3,11,0.04
2013-4-11,60.1,52.1,43.0,46.1,38.8,27.0,93,62,40,30.23,30.06,14,5,14,0.04
2013-4-12,42.6,40.2,36.7,39.3,36.0,31.7,99,86,65,30.24,29.89,10,4,10,0.48
2013-4-13,55.8,44.6,35.2,39.6,36.0,33.6,99,74,47,30.07,29.88,12,3,12,0.07
2013-4-14,56.4,45.7,37.9,37.8,31.9,25.0,84,60,38,30.35,30.06,12,3,13,0.00
2013-4-15,59.2,45.7,34.3,38.0,30.8,25.0,74,57,40,30.52,30.35,10,3,10,0.00
2013-4-16,63.9,50.2,36.7,51.8,44.7,32.1,98,82,60,30.52,30.24,16,5,16,0.03
2013-4-17,72.7,58.1,49.1,53.4,39.1,29.8,97,53,25,30.44,30.24,10,4,10,0.00
2013-4-18,61.2,51.0,39.4,47.9,38.8,31.7,94,66,36,30.51,30.27,14,4,14,0.00
2013-4-19,68.2,59.2,51.1,62.9,57.8,48.2,99,95,81,30.27,29.80,17,8,17,0.00
2013-4-20,61.2,51.5,40.1,60.9,38.9,24.1,99,67,32,30.40,29.79,15,5,15,0.36
2013-4-21,58.6,43.0,32.4,31.5,22.5,17.1,74,46,27,30.77,30.40,15,5,15,0.04
2013-4-22,60.4,45.7,33.1,35.0,31.0,25.4,89,60,32,30.82,30.66,13,4,13,0.00
2013-4-23,46.0,40.8,36.7,39.8,35.4,29.5,92,81,70,30.66,30.23,15,6,15,0.00
2013-4-24,71.1,56.3,41.4,50.7,45.9,38.7,96,71,42,30.23,29.97,15,6,15,0.00
2013-4-25,66.4,53.8,44.8,51.3,35.7,25.2,99,55,22,30.40,29.99,12,4,12,0.02
2013-4-26,68.2,52.5,35.2,38.4,31.2,25.4,79,47,27,30.54,30.40,9,3,9,0.00
2013-4-27,64.2,49.0,38.8,39.9,32.3,13.7,67,53,37,30.55,30.48,10,3,10,0.00
2013-4-28,67.9,60.2,50.2,45.8,37.4,30.8,65,43,36,30.45,30.35,10,4,13,0.00
2013-4-29,60.2,54.0,47.8,48.1,40.5,30.9,85,62,36,30.39,30.35,9,2,10,0.00
2013-4-30,69.5,55.6,43.5,43.0,35.4,27.6,85,51,23,30.48,30.37,7,2,11,0.00
2013-5-1,72.9,55.2,37.9,48.7,38.3,30.5,84,55,33,30.62,30.47,8,2,11,0.00
2013-5-2,79.6,59.6,41.2,46.5,42.8,38.7,96,59,26,30.59,30.43,7,2,9,0.00
2013-5-3,70.8,56.2,45.5,46.7,40.3,34.5,87,57,33,30.61,30.47,8,2,13,0.00
2013-5-4,71.1,51.2,42.8,48.1,44.2,42.0,99,80,39,30.51,30.38,7,1,12,0.00
2013-5-6,73.0,61.9,47.1,53.6,49.2,27.9,86,64,47,30.41,30.28,12,3,12,0.00
2013-5-7,77.9,61.3,45.5,60.4,52.8,5.8,99,76,46,30.31,30.22,9,2,9,0.00
2013-5-8,71.8,61.0,55.4,63.8,59.1,54.6,99,94,71,30.28,30.15,8,2,8,0.42
2013-5-9,64.6,58.3,52.7,62.7,57.4,52.4,99,97,85,30.17,30.01,6,0,6,0.13
2013-5-10,80.6,65.8,51.6,61.9,56.0,44.9,99,74,41,30.11,30.04,10,2,10,0.00
2013-5-11,65.7,60.9,57.6,63.4,59.6,55.6,99,96,79,30.04,29.83,14,4,14,0.34
2013-5-12,71.1,59.8,46.9,58.9,49.2,28.7,99,72,35,30.00,29.75,12,2,12,0.03
2013-5-13,59.4,48.5,38.7,38.0,32.4,29.2,74,55,35,30.20,30.00,9,2,9,0.00
2013-5-14,61.9,48.2,36.7,35.2,31.6,28.4,81,56,31,30.22,30.13,9,2,9,0.00
2013-5-15,57.9,41.2,36.7,54.7,35.4,31.8,95,80,68,30.21,29.82,2,0,1,0.01
2013-5-16,85.1,71.5,49.8,57.7,48.8,39.8,99,50,25,29.95,29.81,12,2,12,0.01
2013-5-17,68.5,57.7,49.5,46.0,42.5,39.2,75,58,39,30.18,29.95,13,3,13,0.00
2013-5-19,67.4,55.4,54.9,55.6,54.8,42.2,99,98,40,30.40,30.33,6,2,6,0.14
2013-5-20,83.1,67.2,55.8,70.2,62.6,55.5,99,87,59,30.33,30.07,8,2,8,0.02
2013-5-21,86.7,73.9,62.2,74.7,68.1,61.9,99,83,62,30.10,29.95,13,3,13,0.00
2013-5-22,67.5,57.6,54.3,65.2,56.5,53.7,99,96,89,30.09,30.03,8,2,8,0.30
2013-5-23,72.0,67.1,63.5,69.5,66.4,63.2,99,97,92,30.03,26.49,11,5,11,1.05
2013-5-24,67.6,63.4,62.1,66.4,63.1,61.8,99,99,96,29.91,29.78,9,1,9,0.68
2013-5-25,67.2,46.1,44.1,66.0,45.3,43.4,99,97,93,29.96,29.95,13,5,13,0.97
2013-6-8,79.0,69.7,54.0,67.0,62.8,53.7,99,79,65,30.58,29.83,10,2,10,0.97
2013-6-9,83.8,68.6,56.1,62.3,58.8,55.5,99,74,43,30.31,30.17,6,1,6,0.00
2013-6-10,72.3,63.6,58.3,66.0,60.8,57.7,99,91,72,30.31,30.04,8,2,8,1.18
2013-6-11,77.0,64.6,58.8,71.1,63.4,58.5,99,96,80,30.05,29.70,7,1,7,0.72
2013-6-12,75.7,65.3,59.0,61.8,55.8,52.2,96,73,47,29.98,29.78,14,3,14,0.00
2013-6-13,58.8,56.5,54.0,56.0,53.7,52.0,99,90,81,29.97,29.75,7,1,7,0.02
2013-6-14,81.0,66.4,56.1,59.8,56.1,48.1,99,72,36,29.97,29.75,8,2,8,0.02
2013-6-15,58.6,57.4,56.1,57.2,56.5,5.4,99,97,95,30.01,29.97,2,0,2,0.00